createdAt,value
2022-12-28T00:00:52.080Z,87.91
2022-12-28T00:03:18.611Z,87.58
2022-12-28T00:05:45.090Z,87.58
2022-12-28T00:08:11.545Z,87.25
2022-12-28T00:11:08.211Z,86.92
2022-12-28T00:13:24.456Z,87.16
2022-12-28T00:15:50.926Z,87.04
2022-12-28T00:18:17.389Z,87.48
2022-12-28T00:20:43.881Z,87.88
2022-12-28T00:23:10.334Z,87.88
2022-12-28T00:25:36.797Z,87.32
2022-12-28T00:28:03.311Z,87.65
2022-12-28T00:30:29.750Z,87.74
2022-12-28T00:32:56.184Z,87.55
2022-12-28T00:35:22.684Z,87.99
2022-12-28T00:37:49.329Z,87.99
2022-12-28T00:40:22.059Z,87.93
2022-12-28T00:42:50.489Z,87.87
2022-12-28T00:45:17.069Z,87.40
2022-12-28T00:47:43.750Z,87.63
2022-12-28T00:50:10.252Z,87.89
2022-12-28T00:52:36.664Z,88.06
2022-12-28T00:55:03.180Z,88.67
2022-12-28T00:57:30.868Z,89.72
2022-12-28T00:59:57.456Z,89.41
2022-12-28T01:02:23.961Z,89.92
2022-12-28T01:04:50.414Z,89.63
2022-12-28T01:07:16.865Z,89.61
2022-12-28T01:09:43.330Z,89.68
2022-12-28T01:12:09.754Z,89.74
2022-12-28T01:14:36.198Z,89.56
2022-12-28T01:17:02.682Z,89.38
2022-12-28T01:19:29.130Z,89.62
2022-12-28T01:21:57.965Z,89.10
2022-12-28T01:24:24.439Z,89.19
2022-12-28T01:26:50.899Z,88.88
2022-12-28T01:29:17.334Z,88.95
2022-12-28T01:31:43.842Z,89.16
2022-12-28T01:34:10.388Z,88.40
2022-12-28T01:36:36.845Z,88.37
2022-12-28T01:39:04.880Z,88.83
2022-12-28T01:41:32.339Z,88.83
2022-12-28T01:43:58.863Z,88.27
2022-12-28T01:46:32.455Z,88.71
2022-12-28T01:48:58.860Z,88.47
2022-12-28T01:51:26.524Z,88.74
2022-12-28T01:53:54.393Z,88.92
2022-12-28T01:56:21.923Z,88.77
2022-12-28T01:58:48.976Z,88.35
2022-12-28T02:01:16.065Z,88.90
2022-12-28T02:03:42.593Z,88.95
2022-12-28T02:06:11.223Z,88.91
2022-12-28T02:08:47.556Z,89.22
2022-12-28T02:11:15.772Z,89.23
2022-12-28T02:13:46.780Z,88.67
2022-12-28T02:16:13.382Z,88.58
2022-12-28T02:18:41.569Z,88.46
2022-12-28T02:21:30.107Z,88.80
2022-12-28T02:24:08.539Z,88.78
2022-12-28T02:26:41.107Z,88.53
2022-12-28T02:29:30.925Z,88.44
2022-12-28T02:32:06.321Z,88.00
2022-12-28T02:34:37.205Z,88.34
2022-12-28T02:37:07.277Z,88.20
2022-12-28T02:39:46.519Z,87.79
2022-12-28T02:42:13.912Z,87.88
2022-12-28T02:44:59.012Z,88.21
2022-12-28T02:47:43.812Z,88.47
2022-12-28T02:50:13.886Z,88.31
2022-12-28T02:52:46.100Z,88.01
2022-12-28T02:55:50.315Z,87.94
2022-12-28T02:58:31.803Z,88.15
2022-12-28T03:01:10.239Z,87.75
2022-12-28T03:03:39.765Z,87.92
2022-12-28T03:06:30.455Z,88.19
2022-12-28T03:09:10.140Z,88.39
2022-12-28T03:11:54.009Z,88.26
2022-12-28T03:14:25.816Z,87.68
2022-12-28T03:17:13.227Z,87.91
2022-12-28T03:20:03.559Z,87.97
2022-12-28T03:22:50.879Z,88.15
2022-12-28T03:25:38.416Z,88.02
2022-12-28T03:28:24.772Z,88.26
2022-12-28T03:31:06.685Z,87.95
2022-12-28T03:33:39.904Z,87.88
2022-12-28T03:36:09.185Z,88.01
2022-12-28T03:38:41.789Z,88.14
2022-12-28T03:41:12.734Z,87.98
2022-12-28T03:43:43.513Z,87.95
2022-12-28T03:46:14.530Z,88.59
2022-12-28T03:48:41.879Z,88.22
2022-12-28T03:51:08.714Z,87.91
2022-12-28T03:53:45.452Z,88.15
2022-12-28T03:56:13.140Z,88.24
2022-12-28T03:58:39.701Z,87.37
2022-12-28T04:01:06.840Z,88.01
2022-12-28T04:03:33.752Z,88.06
2022-12-28T04:06:00.420Z,87.84
2022-12-28T04:08:26.918Z,88.20
2022-12-28T04:10:53.553Z,88.26
2022-12-28T04:13:19.994Z,88.18
2022-12-28T04:15:56.826Z,88.15
2022-12-28T04:18:23.305Z,87.97
2022-12-28T04:20:49.908Z,88.45
2022-12-28T04:23:16.357Z,88.49
2022-12-28T04:25:42.785Z,88.59
2022-12-28T04:28:09.284Z,88.45
2022-12-28T04:30:35.739Z,88.42
2022-12-28T04:33:02.210Z,88.20
2022-12-28T04:35:28.731Z,88.07
2022-12-28T04:37:55.164Z,88.14
2022-12-28T04:40:21.605Z,87.99
2022-12-28T04:43:06.778Z,88.38
2022-12-28T04:45:33.615Z,87.97
2022-12-28T04:48:00.580Z,87.89
2022-12-28T04:50:27.223Z,87.83
2022-12-28T04:52:53.676Z,88.21
2022-12-28T04:55:32.852Z,88.26
2022-12-28T04:58:00.394Z,88.28
2022-12-28T05:00:26.977Z,87.99
2022-12-28T05:02:53.562Z,88.39
2022-12-28T05:05:20.056Z,87.93
2022-12-28T05:07:46.531Z,87.79
2022-12-28T05:10:12.960Z,88.13
2022-12-28T05:12:39.471Z,88.02
2022-12-28T05:15:06.317Z,88.18
2022-12-28T05:17:32.775Z,88.12
2022-12-28T05:19:59.327Z,88.65
2022-12-28T05:22:25.761Z,88.87
2022-12-28T05:24:52.195Z,88.74
2022-12-28T05:27:18.671Z,88.65
2022-12-28T05:29:45.120Z,88.12
2022-12-28T05:32:11.549Z,87.93
2022-12-28T05:34:39.954Z,87.65
2022-12-28T05:37:06.351Z,87.35
2022-12-28T05:39:32.818Z,88.06
2022-12-28T05:42:00.802Z,87.73
2022-12-28T05:44:27.732Z,88.21
2022-12-28T05:46:54.457Z,88.05
2022-12-28T05:49:21.248Z,88.21
2022-12-28T05:51:49.152Z,88.37
2022-12-28T05:54:15.605Z,87.51
2022-12-28T05:56:42.040Z,87.86
2022-12-28T05:59:08.539Z,87.82
2022-12-28T06:01:37.449Z,88.05
2022-12-28T06:04:05.426Z,88.01
2022-12-28T06:06:32.816Z,87.76
2022-12-28T06:08:59.548Z,88.17
2022-12-28T06:11:26.934Z,88.43
2022-12-28T06:13:53.635Z,87.76
2022-12-28T06:16:30.609Z,87.66
2022-12-28T06:18:57.600Z,87.68
2022-12-28T06:21:26.623Z,87.66
2022-12-28T06:23:54.416Z,87.49
2022-12-28T06:26:21.731Z,87.07
2022-12-28T06:28:48.371Z,87.16
2022-12-28T06:31:19.403Z,87.20
2022-12-28T06:33:46.655Z,87.10
2022-12-28T06:36:19.363Z,87.29
2022-12-28T06:38:46.646Z,87.63
2022-12-28T06:41:15.067Z,87.44
2022-12-28T06:43:42.489Z,87.14
2022-12-28T06:46:09.489Z,87.56
2022-12-28T06:48:36.236Z,87.49
2022-12-28T06:51:03.970Z,88.01
2022-12-28T06:53:35.431Z,87.82
2022-12-28T06:56:06.345Z,88.08
2022-12-28T06:58:33.165Z,87.93
2022-12-28T07:01:14.058Z,87.87
2022-12-28T07:03:40.939Z,87.55
2022-12-28T07:06:07.460Z,87.87
2022-12-28T07:08:34.218Z,87.85
2022-12-28T07:11:08.380Z,88.17
2022-12-28T07:13:35.244Z,88.23
2022-12-28T07:16:02.340Z,88.28
2022-12-28T07:18:28.767Z,88.02
2022-12-28T07:21:01.990Z,88.25
2022-12-28T07:23:30.249Z,88.28
2022-12-28T07:26:05.371Z,88.05
2022-12-28T07:28:31.810Z,88.42
2022-12-28T07:30:58.289Z,88.61
2022-12-28T07:33:24.717Z,88.40
2022-12-28T07:35:51.132Z,88.95
2022-12-28T07:38:21.344Z,88.49
2022-12-28T07:40:48.035Z,89.02
2022-12-28T07:43:14.457Z,89.32
2022-12-28T07:45:40.997Z,89.11
2022-12-28T07:48:07.500Z,88.64
2022-12-28T07:50:37.835Z,88.63
2022-12-28T07:53:04.671Z,89.10
2022-12-28T07:55:32.060Z,89.15
2022-12-28T07:57:58.558Z,88.69
2022-12-28T08:00:25.012Z,88.81
2022-12-28T08:02:54.803Z,88.98
2022-12-28T08:05:21.258Z,88.90
2022-12-28T08:07:47.680Z,89.50
2022-12-28T08:10:14.181Z,89.18
2022-12-28T08:12:40.777Z,89.32
2022-12-28T08:15:07.549Z,89.46
2022-12-28T08:17:34.007Z,89.47
2022-12-28T08:20:00.471Z,89.92
2022-12-28T08:22:26.969Z,90.05
2022-12-28T08:24:53.425Z,90.32
2022-12-28T08:27:19.879Z,90.23
2022-12-28T08:29:46.308Z,90.72
2022-12-28T08:32:12.789Z,90.96
2022-12-28T08:34:39.235Z,91.30
2022-12-28T08:37:05.783Z,91.32
2022-12-28T08:39:32.351Z,90.95
2022-12-28T08:41:58.875Z,90.97
2022-12-28T08:44:25.322Z,91.31
2022-12-28T08:46:54.567Z,91.54
2022-12-28T08:49:21.034Z,92.36
2022-12-28T08:51:47.497Z,92.26
2022-12-28T08:54:14.833Z,92.38
2022-12-28T08:56:42.617Z,92.42
2022-12-28T08:59:11.088Z,92.47
2022-12-28T09:01:44.019Z,92.24
2022-12-28T09:04:20.185Z,92.34
2022-12-28T09:06:46.852Z,92.77
2022-12-28T09:09:14.377Z,92.59
2022-12-28T09:11:41.099Z,92.81
2022-12-28T09:14:09.041Z,92.89
2022-12-28T09:16:36.755Z,93.43
2022-12-28T09:19:04.656Z,92.98
2022-12-28T09:21:34.180Z,93.21
2022-12-28T09:24:00.952Z,93.43
2022-12-28T09:26:28.557Z,93.48
2022-12-28T09:28:56.299Z,93.43
2022-12-28T09:31:23.724Z,93.45
2022-12-28T09:36:45.825Z,94.51
2022-12-28T09:39:14.220Z,93.91
2022-12-28T09:41:52.767Z,93.78
2022-12-28T09:44:22.778Z,94.08
2022-12-28T09:46:52.304Z,94.30
2022-12-28T09:49:20.895Z,94.08
2022-12-28T09:51:50.855Z,94.21
2022-12-28T09:54:17.327Z,94.40
2022-12-28T09:56:44.859Z,94.14
2022-12-28T09:59:15.432Z,94.12
2022-12-28T10:01:42.604Z,94.13
2022-12-28T10:04:11.714Z,94.30
2022-12-28T10:06:40.429Z,93.85
2022-12-28T10:09:24.574Z,94.62
2022-12-28T10:11:51.175Z,94.17
2022-12-28T10:14:26.275Z,94.11
2022-12-28T10:16:53.138Z,94.21
2022-12-28T10:19:21.110Z,94.57
2022-12-28T10:21:48.250Z,93.70
2022-12-28T10:24:34.998Z,93.65
2022-12-28T10:27:02.526Z,93.55
2022-12-28T10:29:31.255Z,93.65
2022-12-28T10:32:00.328Z,93.61
2022-12-28T10:34:33.516Z,94.17
2022-12-28T10:37:17.282Z,94.29
2022-12-28T10:39:51.654Z,93.98
2022-12-28T10:42:24.153Z,94.14
2022-12-28T10:44:51.047Z,93.86
2022-12-28T10:47:24.805Z,94.09
2022-12-28T10:52:38.255Z,94.44
2022-12-28T10:55:24.633Z,94.67
2022-12-28T10:58:27.373Z,94.55
2022-12-28T11:00:37.530Z,94.31
2022-12-28T11:03:16.891Z,94.60
2022-12-28T11:03:21.302Z,94.21
2022-12-28T11:05:44.183Z,94.28
2022-12-28T11:08:13.959Z,94.35
2022-12-28T11:10:40.572Z,94.13
2022-12-28T11:13:21.583Z,93.78
2022-12-28T11:15:48.490Z,94.48
2022-12-28T11:18:16.387Z,93.60
2022-12-28T11:20:44.966Z,93.36
2022-12-28T11:23:16.769Z,93.47
2022-12-28T11:25:43.473Z,93.53
2022-12-28T11:28:16.234Z,93.71
2022-12-28T11:30:47.051Z,93.65
2022-12-28T11:33:28.269Z,93.15
2022-12-28T11:35:59.518Z,92.74
2022-12-28T11:38:43.267Z,92.76
2022-12-28T11:41:11.233Z,91.82
2022-12-28T11:43:39.897Z,91.77
2022-12-28T11:46:26.567Z,91.52
2022-12-28T11:48:58.547Z,91.70
2022-12-28T11:51:29.959Z,90.92
2022-12-28T11:53:58.508Z,91.35
2022-12-28T11:56:44.930Z,91.58
2022-12-28T11:59:20.760Z,91.58
2022-12-28T12:01:48.055Z,91.48
2022-12-28T12:04:19.397Z,89.90
2022-12-28T12:06:48.048Z,89.35
2022-12-28T12:09:28.397Z,89.11
2022-12-28T12:11:56.059Z,89.49
2022-12-28T12:14:30.108Z,88.86
2022-12-28T12:17:03.620Z,88.81
2022-12-28T12:19:33.044Z,89.08
2022-12-28T12:22:06.692Z,89.01
2022-12-28T12:24:37.441Z,89.51
2022-12-28T12:27:39.520Z,89.18
2022-12-28T12:30:07.981Z,88.07
2022-12-28T12:32:37.467Z,86.70
2022-12-28T12:35:05.845Z,86.43
2022-12-28T12:37:47.499Z,85.78
2022-12-28T12:40:26.110Z,85.92
2022-12-28T12:42:58.974Z,85.89
2022-12-28T12:45:31.219Z,84.60
2022-12-28T12:48:00.847Z,84.86
2022-12-28T12:50:57.716Z,84.40
2022-12-28T12:53:36.148Z,85.58
2022-12-28T12:56:17.882Z,85.03
2022-12-28T12:58:44.308Z,85.73
2022-12-28T13:01:26.189Z,86.02
2022-12-28T13:03:55.241Z,85.33
2022-12-28T13:06:23.990Z,84.91
2022-12-28T13:09:05.091Z,84.94
2022-12-28T13:11:35.557Z,84.95
2022-12-28T13:14:02.321Z,83.96
2022-12-28T13:16:29.743Z,84.45
2022-12-28T13:19:06.581Z,83.62
2022-12-28T13:21:43.546Z,84.43
2022-12-28T13:24:23.269Z,83.69
2022-12-28T13:26:50.077Z,82.97
2022-12-28T13:29:20.751Z,83.87
2022-12-28T13:31:49.986Z,83.69
2022-12-28T13:34:18.404Z,82.99
2022-12-28T13:36:58.605Z,83.86
2022-12-28T13:39:28.962Z,83.10
2022-12-28T13:42:00.290Z,83.82
2022-12-28T13:44:38.985Z,83.81
2022-12-28T13:47:25.679Z,83.55
2022-12-28T13:50:27.570Z,83.86
2022-12-28T13:53:02.370Z,84.33
2022-12-28T13:55:30.597Z,83.94
2022-12-28T13:58:00.125Z,83.72
2022-12-28T14:00:27.989Z,84.22
2022-12-28T14:02:55.389Z,83.89
2022-12-28T14:05:24.095Z,83.88
2022-12-28T14:07:51.363Z,83.13
2022-12-28T14:10:18.367Z,83.36
2022-12-28T14:12:45.786Z,83.03
2022-12-28T14:15:12.751Z,83.16
2022-12-28T14:17:40.248Z,82.96
2022-12-28T14:20:07.178Z,83.71
2022-12-28T14:22:35.541Z,83.58
2022-12-28T14:25:15.597Z,83.34
2022-12-28T14:27:56.969Z,83.94
2022-12-28T14:30:31.830Z,83.79
2022-12-28T14:33:02.203Z,84.31
2022-12-28T14:35:28.936Z,84.03
2022-12-28T14:37:57.375Z,84.31
2022-12-28T14:40:26.859Z,84.22
2022-12-28T14:42:54.065Z,84.28
2022-12-28T14:45:23.785Z,84.37
2022-12-28T14:47:56.650Z,84.36
2022-12-28T14:50:28.127Z,84.77
2022-12-28T14:53:18.311Z,84.64
2022-12-28T14:55:53.689Z,84.44
2022-12-28T14:58:22.416Z,84.14
2022-12-28T15:00:59.613Z,84.51
2022-12-28T15:03:29.297Z,84.29
2022-12-28T15:05:57.057Z,84.20
2022-12-28T15:08:24.420Z,84.21
2022-12-28T15:10:53.251Z,84.50
2022-12-28T15:13:20.428Z,84.44
2022-12-28T15:15:56.765Z,84.55
2022-12-28T15:18:23.325Z,85.11
2022-12-28T15:20:50.081Z,84.74
2022-12-28T15:23:16.577Z,84.44
2022-12-28T15:25:43.055Z,84.71
2022-12-28T15:28:09.477Z,84.84
2022-12-28T15:30:38.891Z,84.94
2022-12-28T15:33:05.368Z,85.30
2022-12-28T15:35:32.399Z,85.16
2022-12-28T15:37:58.838Z,85.01
2022-12-28T15:40:25.394Z,84.94
2022-12-28T15:42:51.953Z,84.91
2022-12-28T15:45:18.472Z,84.90
2022-12-28T15:47:44.967Z,84.81
2022-12-28T15:50:11.888Z,84.62
2022-12-28T15:52:38.368Z,85.02
2022-12-28T15:55:05.414Z,84.52
2022-12-28T15:57:31.933Z,85.17
2022-12-28T15:59:58.391Z,84.93
2022-12-28T16:02:24.987Z,85.02
2022-12-28T16:04:51.587Z,84.75
2022-12-28T16:07:19.341Z,85.53
2022-12-28T16:09:46.141Z,85.20
2022-12-28T16:12:17.272Z,85.13
2022-12-28T16:14:45.294Z,84.76
2022-12-28T16:17:11.777Z,84.90
2022-12-28T16:19:38.227Z,84.74
2022-12-28T16:22:04.674Z,85.15
2022-12-28T16:24:31.156Z,85.16
2022-12-28T16:26:57.573Z,85.00
2022-12-28T16:29:24.072Z,85.21
2022-12-28T16:31:52.426Z,85.12
2022-12-28T16:34:19.011Z,85.50
2022-12-28T16:36:46.421Z,84.82
2022-12-28T16:39:14.642Z,84.92
2022-12-28T16:41:41.252Z,84.88
2022-12-28T16:44:12.108Z,85.15
2022-12-28T16:46:38.696Z,84.92
2022-12-28T16:49:05.227Z,84.94
2022-12-28T16:51:31.670Z,85.03
2022-12-28T16:53:58.227Z,85.29
2022-12-28T16:56:24.694Z,85.40
2022-12-28T16:58:54.909Z,85.57
2022-12-28T17:01:21.542Z,85.11
2022-12-28T17:03:48.049Z,85.61
2022-12-28T17:06:14.614Z,85.45
2022-12-28T17:08:41.044Z,85.51
2022-12-28T17:11:09.338Z,85.53
2022-12-28T17:13:36.362Z,85.59
2022-12-28T17:16:02.952Z,85.76
2022-12-28T17:18:29.445Z,85.50
2022-12-28T17:21:00.481Z,85.33
2022-12-28T17:23:29.733Z,85.32
2022-12-28T17:25:56.211Z,85.51
2022-12-28T17:28:22.776Z,85.67
2022-12-28T17:30:49.360Z,85.70
2022-12-28T17:33:16.588Z,85.59
2022-12-28T17:35:43.049Z,85.89
2022-12-28T17:38:09.703Z,86.13
2022-12-28T17:40:38.366Z,85.87
2022-12-28T17:43:04.788Z,85.76
2022-12-28T17:45:31.250Z,85.94
2022-12-28T17:47:57.679Z,86.15
2022-12-28T17:50:24.146Z,86.67
2022-12-28T17:52:50.570Z,86.58
2022-12-28T17:55:17.086Z,86.58
2022-12-28T17:57:43.584Z,86.47
2022-12-28T18:00:10.570Z,86.61
2022-12-28T18:02:37.435Z,87.02
2022-12-28T18:05:04.130Z,87.43
2022-12-28T18:07:30.575Z,88.11
2022-12-28T18:09:57.014Z,88.34
2022-12-28T18:12:23.459Z,88.29
2022-12-28T18:14:50.394Z,88.39
2022-12-28T18:17:19.279Z,88.64
2022-12-28T18:19:45.975Z,87.80
2022-12-28T18:22:12.410Z,87.42
2022-12-28T18:24:38.843Z,87.04
2022-12-28T18:27:05.324Z,87.25
2022-12-28T18:29:31.754Z,87.66
2022-12-28T18:31:58.200Z,87.84
2022-12-28T18:34:24.761Z,87.89
2022-12-28T18:36:51.214Z,88.09
2022-12-28T18:39:17.656Z,88.04
2022-12-28T18:41:44.235Z,88.02
2022-12-28T18:44:10.741Z,87.78
2022-12-28T18:46:37.333Z,87.75
2022-12-28T18:49:03.921Z,87.46
2022-12-28T18:51:30.434Z,87.45
2022-12-28T18:53:56.958Z,87.55
2022-12-28T18:56:23.376Z,87.16
2022-12-28T18:58:52.079Z,87.04
2022-12-28T19:01:55.792Z,86.78
2022-12-28T19:04:08.112Z,86.99
2022-12-28T19:06:35.061Z,86.80
2022-12-28T19:09:02.045Z,86.98
2022-12-28T19:11:28.714Z,87.21
2022-12-28T19:13:55.384Z,86.86
2022-12-28T19:16:27.144Z,87.05
2022-12-28T19:18:57.341Z,87.23
2022-12-28T19:21:47.084Z,87.21
2022-12-28T19:24:15.539Z,87.25
2022-12-28T19:26:42.108Z,86.92
2022-12-28T19:29:11.615Z,86.65
2022-12-28T19:31:38.406Z,87.15
2022-12-28T19:34:04.883Z,87.29
2022-12-28T19:36:31.482Z,87.10
2022-12-28T19:38:57.953Z,87.14
2022-12-28T19:41:24.946Z,87.07
2022-12-28T19:43:51.396Z,87.14
2022-12-28T19:46:22.261Z,87.14
2022-12-28T19:48:51.987Z,87.27
2022-12-28T19:51:18.479Z,87.38
2022-12-28T19:53:44.913Z,87.38
2022-12-28T19:56:12.171Z,87.28
2022-12-28T19:58:39.524Z,87.18
2022-12-28T20:01:07.190Z,87.20
2022-12-28T20:03:34.392Z,87.50
2022-12-28T20:06:07.127Z,87.54
2022-12-28T20:08:34.246Z,88.11
2022-12-28T20:11:03.898Z,87.80
2022-12-28T20:13:30.876Z,88.17
2022-12-28T20:15:57.455Z,88.14
2022-12-28T20:18:23.996Z,87.96
2022-12-28T20:21:18.544Z,87.98
2022-12-28T20:23:37.030Z,87.86
2022-12-28T20:26:03.722Z,87.78
2022-12-28T20:28:30.251Z,87.73
2022-12-28T20:30:59.802Z,87.47
2022-12-28T20:33:26.301Z,87.10
2022-12-28T20:35:59.700Z,87.13
2022-12-28T20:38:26.861Z,87.73
2022-12-28T20:41:08.437Z,87.44
2022-12-28T20:43:35.403Z,87.46
2022-12-28T20:46:02.253Z,87.29
2022-12-28T20:48:29.836Z,87.50
2022-12-28T20:50:57.357Z,87.81
2022-12-28T20:53:23.925Z,88.16
2022-12-28T20:55:50.470Z,87.96
2022-12-28T20:58:16.919Z,87.61
2022-12-28T21:00:43.394Z,87.83
2022-12-28T21:03:09.916Z,87.72
2022-12-28T21:05:36.332Z,87.59
2022-12-28T21:08:02.814Z,87.61
2022-12-28T21:10:29.245Z,87.48
2022-12-28T21:12:55.717Z,87.30
2022-12-28T21:15:22.154Z,87.21
2022-12-28T21:17:48.611Z,87.29
2022-12-28T21:20:15.151Z,87.41
2022-12-28T21:22:41.589Z,87.30
2022-12-28T21:25:08.478Z,87.39
2022-12-28T21:27:34.913Z,87.53
2022-12-28T21:30:01.363Z,87.28
2022-12-28T21:32:27.916Z,87.05
2022-12-28T21:34:54.406Z,87.17
2022-12-28T21:37:36.294Z,87.61
2022-12-28T21:40:04.400Z,87.70
2022-12-28T21:42:30.959Z,87.37
2022-12-28T21:44:57.512Z,87.45
2022-12-28T21:47:23.987Z,87.07
2022-12-28T21:49:50.470Z,86.95
2022-12-28T21:52:16.933Z,87.21
2022-12-28T21:54:43.401Z,87.43
2022-12-28T21:57:11.057Z,87.40
2022-12-28T21:59:37.622Z,87.42
2022-12-28T22:02:31.258Z,87.15
2022-12-28T22:05:16.192Z,87.92
2022-12-28T22:07:42.665Z,87.99
2022-12-28T22:10:27.818Z,87.67
2022-12-28T22:12:54.452Z,87.94
2022-12-28T22:15:41.072Z,88.56
2022-12-28T22:18:12.777Z,88.57
2022-12-28T22:20:46.226Z,88.72
2022-12-28T22:23:13.072Z,88.82
2022-12-28T22:25:39.492Z,88.70
2022-12-28T22:28:06.498Z,88.50
2022-12-28T22:30:34.627Z,88.60
2022-12-28T22:33:01.095Z,88.56
2022-12-28T22:35:27.615Z,88.26
2022-12-28T22:37:54.200Z,88.22
2022-12-28T22:40:20.972Z,88.17
2022-12-28T22:42:48.856Z,88.40
2022-12-28T22:45:16.820Z,88.51
2022-12-28T22:47:43.669Z,88.46
2022-12-28T22:50:12.170Z,88.52
2022-12-28T22:52:38.730Z,88.51
2022-12-28T22:55:05.425Z,88.21
2022-12-28T22:57:31.891Z,88.29
2022-12-28T22:59:58.356Z,88.53
2022-12-28T23:02:24.967Z,88.82
2022-12-28T23:04:51.621Z,88.69
2022-12-28T23:07:18.132Z,88.39
2022-12-28T23:09:44.628Z,88.42
2022-12-28T23:12:11.210Z,88.31
2022-12-28T23:14:56.235Z,88.01
2022-12-28T23:17:23.831Z,88.33
2022-12-28T23:20:09.206Z,88.18
2022-12-28T23:23:10.960Z,87.82
2022-12-28T23:25:57.761Z,87.65
2022-12-28T23:28:24.270Z,87.74
2022-12-28T23:30:51.311Z,88.15
2022-12-28T23:33:18.097Z,88.08
2022-12-28T23:35:44.814Z,88.62
2022-12-28T23:38:11.537Z,88.44
2022-12-28T23:40:41.498Z,88.33
2022-12-28T23:43:08.191Z,87.98
2022-12-28T23:45:35.144Z,87.94
2022-12-28T23:48:01.719Z,88.05
2022-12-28T23:50:28.136Z,89.03
2022-12-28T23:52:54.585Z,89.10
2022-12-28T23:55:21.041Z,88.77
2022-12-28T23:57:47.509Z,88.46
